createdAt,value
2023-05-04T00:00:36.927Z,16.53
2023-05-04T00:03:05.566Z,12.35
2023-05-04T00:05:33.832Z,11.59
2023-05-04T00:08:02.199Z,15.20
2023-05-04T00:10:30.563Z,10.45
2023-05-04T00:12:59.028Z,15.77
2023-05-04T00:15:28.227Z,10.64
2023-05-04T00:17:57.012Z,11.21
2023-05-04T00:20:24.242Z,13.11
2023-05-04T00:22:52.909Z,11.78
2023-05-04T00:25:21.143Z,18.81
2023-05-04T00:27:49.506Z,13.30
2023-05-04T00:30:18.036Z,12.73
2023-05-04T00:32:46.697Z,13.68
2023-05-04T00:35:14.987Z,13.30
2023-05-04T00:37:43.819Z,13.11
2023-05-04T00:40:12.349Z,12.54
2023-05-04T00:42:40.007Z,15.20
2023-05-04T00:45:09.210Z,15.20
2023-05-04T00:47:37.202Z,15.77
2023-05-04T00:50:07.005Z,14.44
2023-05-04T00:52:38.468Z,14.63
2023-05-04T00:55:10.029Z,13.87
2023-05-04T00:57:40.844Z,15.39
2023-05-04T01:00:13.329Z,16.34
2023-05-04T01:02:43.358Z,11.97
2023-05-04T01:05:14.017Z,15.01
2023-05-04T01:08:04.423Z,11.21
2023-05-04T01:10:43.067Z,15.39
2023-05-04T01:13:16.689Z,14.25
2023-05-04T01:15:47.611Z,18.62
2023-05-04T01:18:17.963Z,14.44
2023-05-04T01:20:46.060Z,16.91
2023-05-04T01:23:14.459Z,14.82
2023-05-04T01:26:11.223Z,12.73
2023-05-04T01:28:57.079Z,12.54
2023-05-04T01:31:27.563Z,12.35
2023-05-04T01:33:58.554Z,14.82
2023-05-04T01:36:29.193Z,10.83
2023-05-04T01:38:59.963Z,13.49
2023-05-04T01:41:32.965Z,15.20
2023-05-04T01:44:04.733Z,12.73
2023-05-04T01:46:34.521Z,18.81
2023-05-04T01:49:04.505Z,11.59
2023-05-04T01:51:34.256Z,14.44
2023-05-04T01:54:04.166Z,16.72
2023-05-04T01:56:33.979Z,11.02
2023-05-04T01:59:03.978Z,15.39
2023-05-04T02:01:33.829Z,12.54
2023-05-04T02:04:04.042Z,11.59
2023-05-04T02:06:34.007Z,16.53
2023-05-04T02:09:03.919Z,18.43
2023-05-04T02:11:33.711Z,13.49
2023-05-04T02:14:04.398Z,15.20
2023-05-04T02:16:34.275Z,13.68
2023-05-04T02:19:04.289Z,15.20
2023-05-04T02:21:32.608Z,21.28
2023-05-04T02:24:01.091Z,19.00
2023-05-04T02:26:29.411Z,13.30
2023-05-04T02:28:57.885Z,12.16
2023-05-04T02:31:26.472Z,15.58
2023-05-04T02:33:55.426Z,16.72
2023-05-04T02:36:23.278Z,17.86
2023-05-04T02:38:51.689Z,16.91
2023-05-04T02:41:20.539Z,16.91
2023-05-04T02:43:48.413Z,17.67
2023-05-04T02:46:17.124Z,14.82
2023-05-04T02:48:46.210Z,13.68
2023-05-04T02:51:14.205Z,15.01
2023-05-04T02:53:42.217Z,18.24
2023-05-04T02:56:10.906Z,22.80
2023-05-04T02:58:39.036Z,21.09
2023-05-04T03:01:07.727Z,21.85
2023-05-04T03:03:36.597Z,19.57
2023-05-04T03:06:06.610Z,22.42
2023-05-04T03:08:35.968Z,16.15
2023-05-04T03:11:03.264Z,15.20
2023-05-04T03:13:31.655Z,17.86
2023-05-04T03:15:59.932Z,16.72
2023-05-04T03:18:28.411Z,15.01
2023-05-04T03:20:57.171Z,15.96
2023-05-04T03:23:25.290Z,15.77
2023-05-04T03:25:53.653Z,13.49
2023-05-04T03:28:22.306Z,13.87
2023-05-04T03:30:50.581Z,16.34
2023-05-04T03:33:19.077Z,14.82
2023-05-04T03:35:47.534Z,12.73
2023-05-04T03:38:16.661Z,14.44
2023-05-04T03:40:45.040Z,15.39
2023-05-04T03:43:12.670Z,20.71
2023-05-04T03:45:41.210Z,14.63
2023-05-04T03:48:09.731Z,21.66
2023-05-04T03:50:38.112Z,15.01
2023-05-04T03:53:06.427Z,15.96
2023-05-04T03:55:34.892Z,18.81
2023-05-04T03:58:03.644Z,16.15
2023-05-04T04:00:31.788Z,12.54
2023-05-04T04:03:00.078Z,14.06
2023-05-04T04:05:28.830Z,15.58
2023-05-04T04:07:57.008Z,15.77
2023-05-04T04:10:25.470Z,17.29
2023-05-04T04:12:53.736Z,15.58
2023-05-04T04:15:22.370Z,16.34
2023-05-04T04:17:50.927Z,14.25
2023-05-04T04:20:19.079Z,15.96
2023-05-04T04:22:47.493Z,15.01
2023-05-04T04:25:15.846Z,13.87
2023-05-04T04:27:44.371Z,13.49
2023-05-04T04:30:13.883Z,18.24
2023-05-04T04:32:42.351Z,17.10
2023-05-04T04:35:10.613Z,17.48
2023-05-04T04:37:39.043Z,19.38
2023-05-04T04:40:09.021Z,16.72
2023-05-04T04:42:37.424Z,13.87
2023-05-04T04:45:08.327Z,18.81
2023-05-04T04:47:40.250Z,16.15
2023-05-04T04:50:10.860Z,15.58
2023-05-04T04:52:41.384Z,19.19
2023-05-04T04:55:11.476Z,18.81
2023-05-04T04:57:41.291Z,17.29
2023-05-04T05:00:14.411Z,14.25
2023-05-04T05:02:44.262Z,18.24
2023-05-04T05:05:14.284Z,18.05
2023-05-04T05:07:44.199Z,14.63
2023-05-04T05:10:14.186Z,16.91
2023-05-04T05:12:44.249Z,19.38
2023-05-04T05:15:14.263Z,19.76
2023-05-04T05:17:44.149Z,19.76
2023-05-04T05:20:15.318Z,15.39
2023-05-04T05:22:45.137Z,17.86
2023-05-04T05:25:14.945Z,21.85
2023-05-04T05:27:45.323Z,18.43
2023-05-04T05:30:15.495Z,21.09
2023-05-04T05:32:48.446Z,18.62
2023-05-04T05:35:19.154Z,15.20
2023-05-04T05:37:49.311Z,21.28
2023-05-04T05:40:19.326Z,19.76
2023-05-04T05:42:49.734Z,25.84
2023-05-04T05:45:18.340Z,21.47
2023-05-04T05:47:46.212Z,20.52
2023-05-04T05:50:14.587Z,15.58
2023-05-04T05:52:42.711Z,27.55
2023-05-04T05:55:12.085Z,23.18
2023-05-04T05:57:39.612Z,15.20
2023-05-04T06:00:09.391Z,18.24
2023-05-04T06:02:36.572Z,17.48
2023-05-04T06:05:05.502Z,19.00
2023-05-04T06:07:33.256Z,22.61
2023-05-04T06:10:02.098Z,21.28
2023-05-04T06:12:30.328Z,20.14
2023-05-04T06:14:58.885Z,21.09
2023-05-04T06:17:27.377Z,21.47
2023-05-04T06:19:55.962Z,22.99
2023-05-04T06:22:24.275Z,15.77
2023-05-04T06:24:55.684Z,17.10
2023-05-04T06:27:30.311Z,16.91
2023-05-04T06:30:00.145Z,17.10
2023-05-04T06:32:30.828Z,19.57
2023-05-04T06:35:02.461Z,15.77
2023-05-04T06:37:32.539Z,17.10
2023-05-04T06:40:04.023Z,19.00
2023-05-04T06:42:33.758Z,14.44
2023-05-04T06:45:04.503Z,19.19
2023-05-04T06:47:37.948Z,16.15
2023-05-04T06:50:10.099Z,19.76
2023-05-04T06:52:42.350Z,15.20
2023-05-04T06:55:13.655Z,19.76
2023-05-04T06:57:43.424Z,17.48
2023-05-04T07:00:14.697Z,18.05
2023-05-04T07:02:44.489Z,14.25
2023-05-04T07:05:14.246Z,16.34
2023-05-04T07:07:43.990Z,16.15
2023-05-04T07:10:15.362Z,16.91
2023-05-04T07:12:45.067Z,13.49
2023-05-04T07:15:15.162Z,14.06
2023-05-04T07:17:46.768Z,15.01
2023-05-04T07:20:16.763Z,15.58
2023-05-04T07:22:46.747Z,14.06
2023-05-04T07:25:16.465Z,16.91
2023-05-04T07:27:46.434Z,13.87
2023-05-04T07:30:16.306Z,19.76
2023-05-04T07:32:46.469Z,13.68
2023-05-04T07:35:16.261Z,15.39
2023-05-04T07:37:46.534Z,17.29
2023-05-04T07:40:16.691Z,15.96
2023-05-04T07:42:46.514Z,13.11
2023-05-04T07:45:16.891Z,16.91
2023-05-04T07:47:46.674Z,15.39
2023-05-04T07:50:16.716Z,17.10
2023-05-04T07:52:47.875Z,9.69
2023-05-04T07:55:19.018Z,12.73
2023-05-04T07:57:46.062Z,11.02
2023-05-04T08:00:16.098Z,15.01
2023-05-04T08:02:43.048Z,14.82
2023-05-04T08:05:11.745Z,13.11
2023-05-04T08:07:39.971Z,11.21
2023-05-04T08:10:09.776Z,15.58
2023-05-04T08:12:36.546Z,14.06
2023-05-04T08:15:06.453Z,10.26
2023-05-04T08:17:37.961Z,12.35
2023-05-04T08:20:08.087Z,14.44
2023-05-04T08:22:36.766Z,11.40
2023-05-04T08:25:06.379Z,12.92
2023-05-04T08:27:33.861Z,11.78
2023-05-04T08:30:02.503Z,10.26
2023-05-04T08:32:33.295Z,11.02
2023-05-04T08:35:02.666Z,10.07
2023-05-04T08:37:31.255Z,11.59
2023-05-04T08:40:00.117Z,11.59
2023-05-04T08:42:33.349Z,12.92
2023-05-04T08:45:01.319Z,16.34
2023-05-04T08:47:29.714Z,9.69
2023-05-04T08:49:58.414Z,13.68
2023-05-04T08:52:28.175Z,11.40
2023-05-04T08:54:57.751Z,10.45
2023-05-04T08:57:26.607Z,11.21
2023-05-04T08:59:57.513Z,13.30
2023-05-04T09:02:27.818Z,11.40
2023-05-04T09:04:57.754Z,11.21
2023-05-04T09:07:27.615Z,12.16
2023-05-04T09:09:57.956Z,10.26
2023-05-04T09:12:27.836Z,9.88
2023-05-04T09:14:58.449Z,12.92
2023-05-04T09:17:29.509Z,11.59
2023-05-04T09:20:01.357Z,17.86
2023-05-04T09:22:30.978Z,10.07
2023-05-04T09:25:13.588Z,14.06
2023-05-04T09:27:54.795Z,11.59
2023-05-04T09:30:25.180Z,14.44
2023-05-04T09:32:53.592Z,12.92
2023-05-04T09:35:33.782Z,16.15
2023-05-04T09:38:04.683Z,10.83
2023-05-04T09:40:43.046Z,11.40
2023-05-04T09:43:13.493Z,10.07
2023-05-04T09:45:48.753Z,12.16
2023-05-04T09:48:20.524Z,12.35
2023-05-04T09:50:56.499Z,9.12
2023-05-04T09:53:31.633Z,10.45
2023-05-04T09:56:29.449Z,11.97
2023-05-04T09:58:59.973Z,10.45
2023-05-04T10:01:30.711Z,11.40
2023-05-04T10:03:59.372Z,12.35
2023-05-04T10:06:32.409Z,19.38
2023-05-04T10:09:02.232Z,10.64
2023-05-04T10:11:32.557Z,16.34
2023-05-04T10:14:02.531Z,12.92
2023-05-04T10:16:55.212Z,13.11
2023-05-04T10:20:07.283Z,11.59
2023-05-04T10:23:14.470Z,13.11
2023-05-04T10:26:33.163Z,12.54
2023-05-04T10:29:25.295Z,13.49
2023-05-04T10:31:53.467Z,10.07
2023-05-04T10:34:27.019Z,10.64
2023-05-04T10:36:58.995Z,16.15
2023-05-04T10:39:34.287Z,11.02
2023-05-04T10:42:09.044Z,14.25
2023-05-04T10:44:56.062Z,11.59
2023-05-04T10:47:38.012Z,12.16
2023-05-04T10:50:15.616Z,15.77
2023-05-04T10:52:51.996Z,12.92
2023-05-04T10:55:22.673Z,9.31
2023-05-04T10:57:55.099Z,11.59
2023-05-04T11:00:36.717Z,12.54
2023-05-04T11:03:07.653Z,11.97
2023-05-04T11:05:54.349Z,11.97
2023-05-04T11:08:27.272Z,13.68
2023-05-04T11:11:06.990Z,11.59
2023-05-04T11:13:40.873Z,11.40
2023-05-04T11:16:12.575Z,12.73
2023-05-04T11:18:42.624Z,11.78
2023-05-04T11:21:12.556Z,13.87
2023-05-04T11:23:43.727Z,18.24
2023-05-04T11:26:14.785Z,13.49
2023-05-04T11:28:44.525Z,11.40
2023-05-04T11:31:17.115Z,11.78
2023-05-04T11:33:54.874Z,12.16
2023-05-04T11:36:24.289Z,13.49
2023-05-04T11:38:51.801Z,15.77
2023-05-04T11:41:26.792Z,15.39
2023-05-04T11:43:56.114Z,10.07
2023-05-04T11:46:26.142Z,10.83
2023-05-04T11:48:56.074Z,12.73
2023-05-04T11:51:26.007Z,12.35
2023-05-04T11:53:57.020Z,10.83
2023-05-04T11:56:27.320Z,10.45
2023-05-04T11:59:09.082Z,10.45
2023-05-04T12:01:37.658Z,11.02
2023-05-04T12:04:07.857Z,15.96
2023-05-04T12:06:38.560Z,11.59
2023-05-04T12:09:07.842Z,10.64
2023-05-04T12:11:38.444Z,13.11
2023-05-04T12:14:17.000Z,8.93
2023-05-04T12:16:57.888Z,10.83
2023-05-04T12:19:26.124Z,11.02
2023-05-04T12:21:58.422Z,11.78
2023-05-04T12:24:28.221Z,12.16
2023-05-04T12:26:56.068Z,11.78
2023-05-04T12:29:23.344Z,9.12
2023-05-04T12:31:53.261Z,12.16
2023-05-04T12:34:22.699Z,11.02
2023-05-04T12:36:52.409Z,10.83
2023-05-04T12:39:22.230Z,8.36
2023-05-04T12:41:51.982Z,10.64
2023-05-04T12:44:21.833Z,8.74
2023-05-04T12:46:52.141Z,12.16
2023-05-04T12:49:24.648Z,11.59
2023-05-04T12:51:52.776Z,8.55
2023-05-04T12:54:22.632Z,13.11
2023-05-04T12:56:53.409Z,15.20
2023-05-04T12:59:21.995Z,15.20
2023-05-04T13:01:49.398Z,12.54
2023-05-04T13:04:17.877Z,10.64
2023-05-04T13:06:48.402Z,10.64
2023-05-04T13:09:18.161Z,10.83
2023-05-04T13:11:46.222Z,11.78
2023-05-04T13:14:14.612Z,10.64
2023-05-04T13:16:42.790Z,8.55
2023-05-04T13:19:11.393Z,12.54
2023-05-04T13:21:39.530Z,9.12
2023-05-04T13:24:08.443Z,10.83
2023-05-04T13:26:36.559Z,9.88
2023-05-04T13:29:05.540Z,10.83
2023-05-04T13:31:33.401Z,7.98
2023-05-04T13:34:01.726Z,10.26
2023-05-04T13:36:30.390Z,9.88
2023-05-04T13:38:58.653Z,8.74
2023-05-04T13:41:27.243Z,13.87
2023-05-04T13:43:56.184Z,10.45
2023-05-04T13:46:24.275Z,9.88
2023-05-04T13:48:54.222Z,10.07
2023-05-04T13:51:25.911Z,9.31
2023-05-04T13:53:55.888Z,9.50
2023-05-04T13:56:25.936Z,10.64
2023-05-04T13:58:55.951Z,8.36
2023-05-04T14:01:26.151Z,9.69
2023-05-04T14:03:55.971Z,13.30
2023-05-04T14:06:26.127Z,9.12
2023-05-04T14:08:56.311Z,10.07
2023-05-04T14:11:26.203Z,9.12
2023-05-04T14:13:56.135Z,11.78
2023-05-04T14:16:27.747Z,10.45
2023-05-04T14:18:57.732Z,10.45
2023-05-04T14:21:28.101Z,10.83
2023-05-04T14:23:57.904Z,10.26
2023-05-04T14:26:27.789Z,9.50
2023-05-04T14:28:57.894Z,10.83
2023-05-04T14:31:28.138Z,10.83
2023-05-04T14:33:57.930Z,11.02
2023-05-04T14:36:27.752Z,12.35
2023-05-04T14:38:58.406Z,12.73
2023-05-04T14:41:33.312Z,11.40
2023-05-04T14:44:04.391Z,11.59
2023-05-04T14:46:34.168Z,11.21
2023-05-04T14:49:02.857Z,12.92
2023-05-04T14:51:33.674Z,8.93
2023-05-04T14:54:03.304Z,11.02
2023-05-04T14:56:31.626Z,15.39
2023-05-04T14:59:01.722Z,10.07
2023-05-04T15:01:28.670Z,10.26
2023-05-04T15:03:57.646Z,13.30
2023-05-04T15:06:27.339Z,11.59
2023-05-04T15:08:55.164Z,12.16
2023-05-04T15:11:23.163Z,15.20
2023-05-04T15:13:51.830Z,7.60
2023-05-04T15:16:20.229Z,12.35
2023-05-04T15:18:48.609Z,10.45
2023-05-04T15:21:17.163Z,10.45
2023-05-04T15:23:45.574Z,9.69
2023-05-04T15:26:14.074Z,13.49
2023-05-04T15:28:42.658Z,12.16
2023-05-04T15:31:11.392Z,10.45
2023-05-04T15:33:41.302Z,11.59
2023-05-04T15:36:11.430Z,7.60
2023-05-04T15:38:38.906Z,10.64
2023-05-04T15:41:07.190Z,12.92
2023-05-04T15:43:36.991Z,10.45
2023-05-04T15:46:07.044Z,12.73
2023-05-04T15:48:36.847Z,10.83
2023-05-04T15:51:13.036Z,8.36
2023-05-04T15:53:41.294Z,10.45
2023-05-04T15:56:13.254Z,11.02
2023-05-04T15:58:45.102Z,8.55
2023-05-04T16:01:15.040Z,9.50
2023-05-04T16:03:45.539Z,12.92
2023-05-04T16:06:15.723Z,7.79
2023-05-04T16:08:45.512Z,12.73
2023-05-04T16:11:15.480Z,9.31
2023-05-04T16:13:46.346Z,7.98
2023-05-04T16:16:15.496Z,9.69
2023-05-04T16:18:45.368Z,8.93
2023-05-04T16:21:15.211Z,8.93
2023-05-04T16:23:45.463Z,9.88
2023-05-04T16:26:15.276Z,9.88
2023-05-04T16:28:45.330Z,9.12
2023-05-04T16:31:15.449Z,9.88
2023-05-04T16:33:47.925Z,10.26
2023-05-04T16:36:16.923Z,9.50
2023-05-04T16:38:48.581Z,10.07
2023-05-04T16:41:18.824Z,11.40
2023-05-04T16:43:49.227Z,8.17
2023-05-04T16:46:18.284Z,11.59
2023-05-04T16:48:48.152Z,11.21
2023-05-04T16:51:18.017Z,10.45
2023-05-04T16:53:48.183Z,12.16
2023-05-04T16:56:19.454Z,8.74
2023-05-04T16:58:50.090Z,8.36
2023-05-04T17:01:20.476Z,9.69
2023-05-04T17:03:49.691Z,10.83
2023-05-04T17:06:19.628Z,9.88
2023-05-04T17:08:49.366Z,7.60
2023-05-04T17:11:21.954Z,9.12
2023-05-04T17:13:51.229Z,7.79
2023-05-04T17:16:21.167Z,9.50
2023-05-04T17:18:50.915Z,11.59
2023-05-04T17:21:20.960Z,8.17
2023-05-04T17:23:50.721Z,13.11
2023-05-04T17:26:20.468Z,11.97
2023-05-04T17:28:51.479Z,9.88
2023-05-04T17:31:20.908Z,11.02
2023-05-04T17:33:50.827Z,8.74
2023-05-04T17:36:20.684Z,8.36
2023-05-04T17:38:49.073Z,9.88
2023-05-04T17:41:17.735Z,11.78
2023-05-04T17:43:46.047Z,9.88
2023-05-04T17:46:14.347Z,11.21
2023-05-04T17:48:44.592Z,14.44
2023-05-04T17:51:14.245Z,10.07
2023-05-04T17:53:42.584Z,11.40
2023-05-04T17:56:11.146Z,8.93
2023-05-04T17:58:40.001Z,9.12
2023-05-04T18:01:07.979Z,9.88
2023-05-04T18:03:36.576Z,11.21
2023-05-04T18:06:06.182Z,10.26
2023-05-04T18:08:33.190Z,9.50
2023-05-04T18:11:01.556Z,9.50
2023-05-04T18:13:30.230Z,11.59
2023-05-04T18:15:58.575Z,9.12
2023-05-04T18:18:26.942Z,16.15
2023-05-04T18:20:58.710Z,8.74
2023-05-04T18:23:29.219Z,12.35
2023-05-04T18:25:58.934Z,9.31
2023-05-04T18:28:28.839Z,8.55
2023-05-04T18:30:59.193Z,8.55
2023-05-04T18:33:29.069Z,10.45
2023-05-04T18:35:58.858Z,11.78
2023-05-04T18:38:28.780Z,11.40
2023-05-04T18:40:58.506Z,10.83
2023-05-04T18:43:28.517Z,13.11
2023-05-04T18:45:58.801Z,10.07
2023-05-04T18:48:28.599Z,11.59
2023-05-04T18:50:58.527Z,10.26
2023-05-04T18:53:28.330Z,10.64
2023-05-04T18:56:09.360Z,11.21
2023-05-04T18:58:38.337Z,9.88
2023-05-04T19:01:07.480Z,9.12
2023-05-04T19:03:37.515Z,10.64
2023-05-04T19:06:07.810Z,12.16
2023-05-04T19:08:37.682Z,10.64
2023-05-04T19:11:07.824Z,8.74
2023-05-04T19:13:37.877Z,11.21
2023-05-04T19:16:12.261Z,12.35
2023-05-04T19:18:41.409Z,9.88
2023-05-04T19:21:11.261Z,10.26
2023-05-04T19:23:41.220Z,12.35
2023-05-04T19:26:09.667Z,10.45
2023-05-04T19:28:39.991Z,15.77
2023-05-04T19:31:09.520Z,16.72
2023-05-04T19:33:48.046Z,12.16
2023-05-04T19:36:18.470Z,12.92
2023-05-04T19:38:47.009Z,12.92
2023-05-04T19:41:15.527Z,16.15
2023-05-04T19:43:43.780Z,11.59
2023-05-04T19:46:12.497Z,12.92
2023-05-04T19:48:40.610Z,11.59
2023-05-04T19:51:09.108Z,13.11
2023-05-04T19:53:37.652Z,10.45
2023-05-04T19:56:05.852Z,9.31
2023-05-04T19:58:34.329Z,11.59
2023-05-04T20:01:02.720Z,12.35
2023-05-04T20:03:31.089Z,12.35
2023-05-04T20:05:58.660Z,13.11
2023-05-04T20:08:25.620Z,13.30
2023-05-04T20:10:54.086Z,11.78
2023-05-04T20:13:23.161Z,11.21
2023-05-04T20:15:51.659Z,8.55
2023-05-04T20:18:20.160Z,14.25
2023-05-04T20:20:47.594Z,11.02
2023-05-04T20:23:16.706Z,10.64
2023-05-04T20:25:44.642Z,13.11
2023-05-04T20:28:12.825Z,11.97
2023-05-04T20:30:41.388Z,11.40
2023-05-04T20:33:09.863Z,11.40
2023-05-04T20:35:41.555Z,10.26
2023-05-04T20:38:09.873Z,15.39
2023-05-04T20:40:38.132Z,10.07
2023-05-04T20:43:06.524Z,17.86
2023-05-04T20:45:35.035Z,14.82
2023-05-04T20:48:04.430Z,9.12
2023-05-04T20:50:31.784Z,13.87
2023-05-04T20:53:01.332Z,11.21
2023-05-04T20:55:28.848Z,11.02
2023-05-04T20:57:57.327Z,10.45
2023-05-04T21:00:25.475Z,11.78
2023-05-04T21:02:54.836Z,12.16
2023-05-04T21:05:22.306Z,10.83
2023-05-04T21:07:52.304Z,15.01
2023-05-04T21:10:20.055Z,11.78
2023-05-04T21:12:47.973Z,13.11
2023-05-04T21:15:16.483Z,9.50
2023-05-04T21:17:44.448Z,14.25
2023-05-04T21:20:12.920Z,12.92
2023-05-04T21:22:41.677Z,11.59
2023-05-04T21:25:09.651Z,11.59
2023-05-04T21:27:38.016Z,12.92
2023-05-04T21:30:09.773Z,12.16
2023-05-04T21:32:38.462Z,12.16
2023-05-04T21:35:09.025Z,9.31
2023-05-04T21:37:38.554Z,10.64
2023-05-04T21:40:09.718Z,12.73
2023-05-04T21:42:38.685Z,14.44
2023-05-04T21:45:08.962Z,11.02
2023-05-04T21:47:38.798Z,11.59
2023-05-04T21:50:09.821Z,10.26
2023-05-04T21:52:38.968Z,13.87
2023-05-04T21:55:09.395Z,11.21
2023-05-04T21:57:39.322Z,12.73
2023-05-04T22:00:17.696Z,14.63
2023-05-04T22:02:45.190Z,14.25
2023-05-04T22:05:12.675Z,12.54
2023-05-04T22:07:42.605Z,11.21
2023-05-04T22:10:12.413Z,11.02
2023-05-04T22:12:42.207Z,12.73
2023-05-04T22:15:12.127Z,13.11
2023-05-04T22:17:42.121Z,15.01
2023-05-04T22:20:13.491Z,13.87
2023-05-04T22:22:42.484Z,19.38
2023-05-04T22:25:12.511Z,13.11
2023-05-04T22:27:42.290Z,13.87
2023-05-04T22:30:13.072Z,15.58
2023-05-04T22:32:42.049Z,12.54
2023-05-04T22:35:11.843Z,13.87
2023-05-04T22:37:41.560Z,17.86
2023-05-04T22:40:11.598Z,14.63
2023-05-04T22:42:41.468Z,11.97
2023-05-04T22:45:15.263Z,12.35
2023-05-04T22:47:46.318Z,14.25
2023-05-04T22:50:16.233Z,15.77
2023-05-04T22:52:46.240Z,10.64
2023-05-04T22:55:16.230Z,13.87
2023-05-04T22:57:46.067Z,11.21
2023-05-04T23:00:16.686Z,15.39
2023-05-04T23:02:46.275Z,12.35
2023-05-04T23:05:16.216Z,12.35
2023-05-04T23:07:44.544Z,13.68
2023-05-04T23:10:12.909Z,13.87
2023-05-04T23:12:41.364Z,11.97
2023-05-04T23:15:10.117Z,17.86
2023-05-04T23:17:38.768Z,13.30
2023-05-04T23:20:09.399Z,16.15
2023-05-04T23:22:37.945Z,13.30
2023-05-04T23:25:07.090Z,16.91
2023-05-04T23:27:34.935Z,13.68
2023-05-04T23:30:03.866Z,10.83
2023-05-04T23:32:31.803Z,13.68
2023-05-04T23:35:00.186Z,10.83
2023-05-04T23:37:33.370Z,12.35
2023-05-04T23:40:01.946Z,14.82
2023-05-04T23:42:31.268Z,15.77
2023-05-04T23:45:00.956Z,12.92
2023-05-04T23:47:30.788Z,15.20
2023-05-04T23:50:01.145Z,13.30
2023-05-04T23:52:30.770Z,12.73
2023-05-04T23:55:00.711Z,13.49
2023-05-04T23:57:30.448Z,16.34
